Time;durP1;ratioP1;P1;durP2;ratioP2;P2;SDS_P1;SDS_P2;PMS_P1;PMS_P2;Temp;Humidity;BMP_temperature;BMP_pressure;BME280_temperature;BME280_humidity;BME280_pressure;Samples;Min_cycle;Max_cycle;Signal;HPM_P1;HPM_P2
2022/04/12 00:00:12;;;;;;;;;;;11.50;99.90;;;;;;5093061;28;19932;-83
2022/04/12 00:02:39;;;;;;;;;;;11.50;99.90;;;;;;5093355;28;19959;-84
2022/04/12 00:05:06;;;;;;;;;;;11.40;99.90;;;;;;5093085;28;19960;-84
2022/04/12 00:07:34;;;;;;;;;;;11.50;99.90;;;;;;5093286;28;20001;-84
2022/04/12 00:10:01;;;;;;;;;;;11.50;99.90;;;;;;5093275;28;19971;-84
2022/04/12 00:12:28;;;;;;;;;;;11.50;99.90;;;;;;5093216;28;19934;-84
2022/04/12 00:14:55;;;;;;;;;;;11.40;99.90;;;;;;5092769;28;20458;-84
2022/04/12 00:20:06;;;;;;;;;;;11.40;99.90;;;;;;5093241;28;19931;-84
2022/04/12 00:22:34;;;;;;;;;;;11.40;99.90;;;;;;5093022;28;20539;-83
2022/04/12 00:25:01;;;;;;;;;;;11.40;99.90;;;;;;5092711;28;19967;-84
2022/04/12 00:27:28;;;;;;;;;;;11.40;99.90;;;;;;5093201;28;19998;-83
2022/04/12 00:29:55;;;;;;;;;;;11.30;99.90;;;;;;5095438;28;19971;-84
2022/04/12 00:32:22;;;;;;;;;;;11.30;99.90;;;;;;5096562;28;19964;-84
2022/04/12 00:34:48;;;;;;;;;;;11.30;99.90;;;;;;5096612;28;19990;-84
2022/04/12 00:37:15;;;;;;;;;;;11.30;99.90;;;;;;5097347;28;19971;-84
2022/04/12 00:39:43;;;;;;;;;;;11.30;99.90;;;;;;5097363;28;20068;-84
2022/04/12 00:42:10;;;;;;;;;;;11.20;99.90;;;;;;5097435;28;19971;-84
2022/04/12 00:44:37;;;;;;;;;;;11.00;99.90;;;;;;5097547;28;19924;-84
2022/04/12 00:47:03;;;;;;;;;;;10.90;99.90;;;;;;5097411;28;20278;-84
2022/04/12 00:49:30;;;;;;;;;;;11.00;99.90;;;;;;5097617;28;19928;-84
2022/04/12 00:51:57;;;;;;;;;;;11.00;99.90;;;;;;5097094;28;19977;-84
2022/04/12 00:54:24;;;;;;;;;;;11.10;99.90;;;;;;5096885;28;19978;-84
2022/04/12 00:56:52;;;;;;;;;;;11.20;99.90;;;;;;5097355;28;19967;-84
2022/04/12 00:59:19;;;;;;;;;;;11.20;99.90;;;;;;5096939;28;19963;-84
2022/04/12 01:01:46;;;;;;;;;;;11.20;99.90;;;;;;5097307;28;19960;-84
2022/04/12 01:04:13;;;;;;;;;;;11.30;99.90;;;;;;5097118;28;19936;-84
2022/04/12 01:06:40;;;;;;;;;;;11.30;99.90;;;;;;5096972;28;19963;-84
2022/04/12 01:09:07;;;;;;;;;;;11.30;99.90;;;;;;5096712;28;19946;-84
2022/04/12 01:11:35;;;;;;;;;;;11.30;99.90;;;;;;5096734;28;19928;-84
2022/04/12 01:14:03;;;;;;;;;;;11.30;99.90;;;;;;5096653;28;19924;-84
2022/04/12 01:16:30;;;;;;;;;;;11.20;99.90;;;;;;5096884;28;19985;-84
2022/04/12 01:18:57;;;;;;;;;;;11.30;99.90;;;;;;5098150;28;20349;-84
2022/04/12 01:21:23;;;;;;;;;;;11.30;99.90;;;;;;5097479;28;20452;-85
2022/04/12 01:23:57;;;;;;;;;;;11.30;99.90;;;;;;5097007;28;19974;-83
2022/04/12 01:26:24;;;;;;;;;;;11.30;99.90;;;;;;5096466;28;19967;-84
2022/04/12 01:28:51;;;;;;;;;;;11.30;99.90;;;;;;5096161;28;20405;-83
2022/04/12 01:31:17;;;;;;;;;;;11.30;99.90;;;;;;5096258;28;19975;-84
2022/04/12 01:33:44;;;;;;;;;;;11.20;99.90;;;;;;5096234;28;20401;-84
2022/04/12 01:36:11;;;;;;;;;;;11.20;99.90;;;;;;5096452;28;20431;-84
2022/04/12 01:38:38;;;;;;;;;;;11.30;99.90;;;;;;5095960;28;19983;-84
2022/04/12 01:41:06;;;;;;;;;;;11.30;99.90;;;;;;5095601;28;19970;-84
2022/04/12 01:43:33;;;;;;;;;;;11.10;99.90;;;;;;5096485;28;20029;-84
2022/04/12 01:46:00;;;;;;;;;;;11.30;99.90;;;;;;5090549;28;19924;-83
2022/04/12 01:48:26;;;;;;;;;;;11.30;99.90;;;;;;5095992;28;19987;-84
2022/04/12 01:50:53;;;;;;;;;;;11.20;99.90;;;;;;5095861;28;19969;-84
2022/04/12 01:53:20;;;;;;;;;;;11.20;99.90;;;;;;5095813;28;19985;-84
2022/04/12 01:55:47;;;;;;;;;;;11.30;99.90;;;;;;5095594;28;19931;-84
2022/04/12 01:58:15;;;;;;;;;;;11.40;99.90;;;;;;5096080;28;19971;-84
2022/04/12 02:00:43;;;;;;;;;;;11.20;99.90;;;;;;5096155;28;19956;-84
2022/04/12 02:03:09;;;;;;;;;;;11.30;99.90;;;;;;5095754;28;19930;-84
2022/04/12 02:05:36;;;;;;;;;;;11.30;99.90;;;;;;5095232;28;20405;-83
2022/04/12 02:08:03;;;;;;;;;;;11.30;99.90;;;;;;5095740;28;19960;-84
2022/04/12 02:10:30;;;;;;;;;;;11.20;99.90;;;;;;5095678;28;19971;-84
2022/04/12 02:12:56;;;;;;;;;;;11.30;99.90;;;;;;5095120;28;19967;-84
2022/04/12 02:15:25;;;;;;;;;;;11.30;99.90;;;;;;5095573;28;19959;-84
2022/04/12 02:17:51;;;;;;;;;;;11.30;99.90;;;;;;5094985;28;19970;-84
2022/04/12 02:20:18;;;;;;;;;;;11.30;99.90;;;;;;5095133;28;19928;-84
2022/04/12 02:22:45;;;;;;;;;;;11.30;99.90;;;;;;5094701;28;19924;-84
2022/04/12 02:25:11;;;;;;;;;;;11.30;99.90;;;;;;5094851;28;19973;-84
2022/04/12 02:27:38;;;;;;;;;;;11.50;99.90;;;;;;5095315;28;19971;-84
2022/04/12 02:30:06;;;;;;;;;;;11.30;99.90;;;;;;5095136;28;20285;-83
2022/04/12 02:32:34;;;;;;;;;;;11.20;99.90;;;;;;5094972;28;20382;-83
2022/04/12 02:35:01;;;;;;;;;;;11.30;99.90;;;;;;5095133;28;19963;-83
2022/04/12 02:37:28;;;;;;;;;;;11.30;99.90;;;;;;5095484;28;19924;-84
2022/04/12 02:39:54;;;;;;;;;;;11.30;99.90;;;;;;5094973;28;19967;-84
2022/04/12 02:42:21;;;;;;;;;;;11.20;99.90;;;;;;5095039;28;20005;-83
2022/04/12 02:44:48;;;;;;;;;;;11.30;99.90;;;;;;5094587;28;19928;-83
2022/04/12 02:47:15;;;;;;;;;;;11.20;99.90;;;;;;5094707;28;19946;-84
2022/04/12 02:49:43;;;;;;;;;;;11.20;99.90;;;;;;5094905;28;20439;-84
2022/04/12 02:52:10;;;;;;;;;;;11.20;99.90;;;;;;5094968;28;20309;-83
2022/04/12 02:54:36;;;;;;;;;;;11.30;99.90;;;;;;5094798;28;19985;-84
2022/04/12 02:57:03;;;;;;;;;;;11.40;99.90;;;;;;5094717;28;19970;-84
2022/04/12 02:59:30;;;;;;;;;;;11.20;99.90;;;;;;5094965;28;19969;-84
2022/04/12 03:01:56;;;;;;;;;;;11.20;99.90;;;;;;5094918;28;19982;-83
2022/04/12 03:04:23;;;;;;;;;;;11.40;99.90;;;;;;5094641;28;20571;-83
2022/04/12 03:06:51;;;;;;;;;;;11.20;99.90;;;;;;5094426;28;19971;-83
2022/04/12 03:09:18;;;;;;;;;;;11.20;99.90;;;;;;5094813;28;19962;-83
2022/04/12 03:11:45;;;;;;;;;;;11.10;99.90;;;;;;5094708;28;20003;-84
2022/04/12 03:14:12;;;;;;;;;;;11.00;99.90;;;;;;5094780;28;19982;-83
2022/04/12 03:16:38;;;;;;;;;;;11.00;99.90;;;;;;5094659;28;19978;-84
2022/04/12 03:19:05;;;;;;;;;;;11.20;99.90;;;;;;5094004;28;19963;-84
2022/04/12 03:21:32;;;;;;;;;;;11.10;99.90;;;;;;5094293;28;20010;-83
2022/04/12 03:24:00;;;;;;;;;;;11.20;99.90;;;;;;5094650;28;19961;-83
2022/04/12 03:26:27;;;;;;;;;;;11.30;99.90;;;;;;5094468;28;19932;-83
2022/04/12 03:28:54;;;;;;;;;;;11.40;99.90;;;;;;5094432;28;19963;-83
2022/04/12 03:31:21;;;;;;;;;;;11.40;99.90;;;;;;5094060;28;19977;-83
2022/04/12 03:33:48;;;;;;;;;;;11.20;99.90;;;;;;5094547;28;20361;-83
2022/04/12 03:36:16;;;;;;;;;;;11.20;99.90;;;;;;5094416;28;19963;-83
2022/04/12 03:38:48;;;;;;;;;;;11.20;99.90;;;;;;5094029;28;19930;-84
2022/04/12 03:41:18;;;;;;;;;;;11.30;99.90;;;;;;5094023;28;19924;-83
2022/04/12 03:43:45;;;;;;;;;;;11.20;99.90;;;;;;5094271;28;19972;-83
2022/04/12 03:46:12;;;;;;;;;;;11.20;99.90;;;;;;5093953;28;19953;-83
2022/04/12 03:48:38;;;;;;;;;;;11.20;99.90;;;;;;5094075;28;19951;-84
2022/04/12 03:51:05;;;;;;;;;;;11.20;99.90;;;;;;5093907;28;19960;-84
2022/04/12 03:53:32;;;;;;;;;;;11.10;99.90;;;;;;5094089;28;19960;-84
2022/04/12 03:55:59;;;;;;;;;;;11.00;99.90;;;;;;5093796;28;20374;-83
2022/04/12 03:58:28;;;;;;;;;;;11.00;99.90;;;;;;5093613;28;19924;-83
2022/04/12 04:00:54;;;;;;;;;;;10.90;99.90;;;;;;5093567;28;20374;-83
2022/04/12 04:03:21;;;;;;;;;;;10.90;99.90;;;;;;5093672;28;19955;-83
2022/04/12 04:05:48;;;;;;;;;;;10.80;99.90;;;;;;5093751;28;19932;-83
2022/04/12 04:08:15;;;;;;;;;;;10.70;99.90;;;;;;5093584;28;19967;-84
2022/04/12 04:10:42;;;;;;;;;;;10.80;99.90;;;;;;5093686;28;19975;-83
2022/04/12 04:13:09;;;;;;;;;;;10.80;99.90;;;;;;5093679;28;19982;-83
2022/04/12 04:15:40;;;;;;;;;;;10.70;99.90;;;;;;5093712;28;20370;-83
2022/04/12 04:18:07;;;;;;;;;;;10.80;99.90;;;;;;5093733;28;20454;-83
2022/04/12 04:20:35;;;;;;;;;;;10.90;99.90;;;;;;5093567;28;19971;-83
2022/04/12 04:23:01;;;;;;;;;;;11.00;99.90;;;;;;5073394;28;19978;-83
2022/04/12 04:25:28;;;;;;;;;;;10.90;99.90;;;;;;5073490;28;19960;-84
2022/04/12 04:27:55;;;;;;;;;;;10.80;99.90;;;;;;5084469;28;19970;-83
2022/04/12 04:30:22;;;;;;;;;;;10.80;99.90;;;;;;5093186;28;20401;-83
2022/04/12 04:32:50;;;;;;;;;;;10.80;99.90;;;;;;5092903;28;19975;-84
2022/04/12 04:35:17;;;;;;;;;;;10.80;99.90;;;;;;5093372;28;19928;-84
2022/04/12 04:37:44;;;;;;;;;;;10.90;99.90;;;;;;5093044;28;19963;-84
2022/04/12 04:40:12;;;;;;;;;;;10.90;99.90;;;;;;5093102;28;20039;-83
2022/04/12 04:42:39;;;;;;;;;;;11.00;99.90;;;;;;5093371;28;20019;-83
2022/04/12 04:45:07;;;;;;;;;;;10.70;99.90;;;;;;5093315;28;20385;-83
2022/04/12 04:47:33;;;;;;;;;;;11.00;99.90;;;;;;5093371;28;19974;-84
2022/04/12 04:50:01;;;;;;;;;;;10.90;99.90;;;;;;5093407;28;19924;-83
2022/04/12 04:52:28;;;;;;;;;;;10.00;99.90;;;;;;5092782;28;19928;-84
2022/04/12 04:54:55;;;;;;;;;;;10.80;99.90;;;;;;5093400;28;19967;-84
2022/04/12 04:57:21;;;;;;;;;;;10.60;99.90;;;;;;5093154;28;19924;-84
2022/04/12 04:59:48;;;;;;;;;;;10.50;99.90;;;;;;5093314;28;20004;-84
2022/04/12 05:02:15;;;;;;;;;;;10.50;99.90;;;;;;5092603;28;19959;-85
2022/04/12 05:04:42;;;;;;;;;;;10.30;99.90;;;;;;5092898;28;20346;-84
2022/04/12 05:07:10;;;;;;;;;;;10.40;99.90;;;;;;5093553;28;19928;-84
2022/04/12 05:09:36;;;;;;;;;;;10.40;99.90;;;;;;5093539;28;19963;-85
2022/04/12 05:12:03;;;;;;;;;;;10.40;99.90;;;;;;5093153;28;20340;-84
2022/04/12 05:14:30;;;;;;;;;;;10.40;99.90;;;;;;5093150;28;19978;-84
2022/04/12 05:16:57;;;;;;;;;;;10.30;99.90;;;;;;5095601;28;19959;-84
2022/04/12 05:19:23;;;;;;;;;;;10.30;99.90;;;;;;5096626;28;19964;-84
2022/04/12 05:21:50;;;;;;;;;;;10.20;99.90;;;;;;5096848;28;19963;-84
2022/04/12 05:24:18;;;;;;;;;;;10.20;99.90;;;;;;5096629;28;19975;-84
2022/04/12 05:26:45;;;;;;;;;;;10.20;99.90;;;;;;5096313;28;19989;-85
2022/04/12 05:29:12;;;;;;;;;;;10.20;99.90;;;;;;5096720;28;19956;-84
2022/04/12 05:31:38;;;;;;;;;;;10.40;99.90;;;;;;5096866;28;19975;-84
2022/04/12 05:34:05;;;;;;;;;;;10.40;99.90;;;;;;5096291;28;19959;-84
2022/04/12 05:36:32;;;;;;;;;;;10.40;99.90;;;;;;5096601;28;19924;-84
2022/04/12 05:38:59;;;;;;;;;;;10.40;99.90;;;;;;5094894;28;19971;-84
2022/04/12 05:41:27;;;;;;;;;;;10.30;99.90;;;;;;5095988;28;19978;-83
2022/04/12 05:43:53;;;;;;;;;;;10.30;99.90;;;;;;5096381;28;20001;-84
2022/04/12 05:46:20;;;;;;;;;;;10.20;99.90;;;;;;5096389;28;20338;-84
2022/04/12 05:48:47;;;;;;;;;;;10.20;99.90;;;;;;5095969;28;19959;-84
2022/04/12 05:51:14;;;;;;;;;;;10.30;99.90;;;;;;5096154;28;19986;-83
2022/04/12 05:53:40;;;;;;;;;;;10.30;99.90;;;;;;5096255;28;19960;-83
2022/04/12 05:56:07;;;;;;;;;;;10.30;99.90;;;;;;5095644;28;20370;-83
2022/04/12 05:58:37;;;;;;;;;;;10.30;99.90;;;;;;5095606;28;19924;-83
2022/04/12 06:01:04;;;;;;;;;;;10.30;99.90;;;;;;5096027;28;19924;-83
2022/04/12 06:03:31;;;;;;;;;;;10.30;99.90;;;;;;5096218;28;19972;-83
2022/04/12 06:05:58;;;;;;;;;;;10.20;99.90;;;;;;5095643;28;20384;-84
2022/04/12 06:08:24;;;;;;;;;;;10.30;99.90;;;;;;5096114;28;19960;-84
2022/04/12 06:10:52;;;;;;;;;;;10.30;99.90;;;;;;5095973;28;19959;-83
2022/04/12 06:13:19;;;;;;;;;;;10.30;99.90;;;;;;5095990;28;19968;-85
2022/04/12 06:15:47;;;;;;;;;;;10.40;99.90;;;;;;5095380;28;19932;-84
2022/04/12 06:18:13;;;;;;;;;;;10.60;99.90;;;;;;5095296;28;19967;-84
2022/04/12 06:20:40;;;;;;;;;;;10.40;99.90;;;;;;5095617;28;19924;-84
2022/04/12 06:23:07;;;;;;;;;;;10.90;99.90;;;;;;5095141;28;19970;-84
2022/04/12 06:25:34;;;;;;;;;;;11.00;99.90;;;;;;5095678;28;19959;-84
2022/04/12 06:28:00;;;;;;;;;;;11.10;99.90;;;;;;5094739;28;19974;-84
2022/04/12 06:30:30;;;;;;;;;;;11.10;99.90;;;;;;5094989;28;20386;-84
2022/04/12 06:32:58;;;;;;;;;;;11.20;99.90;;;;;;5094852;28;20362;-85
2022/04/12 06:35:24;;;;;;;;;;;11.20;99.90;;;;;;5096901;28;20419;-84
2022/04/12 06:37:53;;;;;;;;;;;11.20;99.90;;;;;;5095074;28;19964;-84
2022/04/12 06:40:21;;;;;;;;;;;11.60;99.90;;;;;;5094605;28;19924;-84
2022/04/12 06:42:48;;;;;;;;;;;11.70;99.90;;;;;;5095218;28;20426;-84
2022/04/12 06:45:14;;;;;;;;;;;12.00;99.90;;;;;;5094909;28;20018;-84
2022/04/12 06:47:41;;;;;;;;;;;12.20;99.90;;;;;;5095183;28;19967;-85
2022/04/12 06:50:10;;;;;;;;;;;12.20;99.90;;;;;;5093873;28;19946;-84
2022/04/12 06:52:37;;;;;;;;;;;12.20;99.90;;;;;;5094507;28;19928;-84
2022/04/12 06:55:05;;;;;;;;;;;12.30;99.90;;;;;;5094534;28;19970;-85
2022/04/12 06:57:32;;;;;;;;;;;12.20;99.90;;;;;;5094621;28;20270;-85
2022/04/12 06:59:59;;;;;;;;;;;12.40;99.90;;;;;;5095061;28;20018;-84
2022/04/12 07:02:26;;;;;;;;;;;12.40;99.90;;;;;;5094460;28;19924;-84
2022/04/12 07:04:52;;;;;;;;;;;12.20;99.90;;;;;;5094783;28;19970;-83
2022/04/12 07:07:21;;;;;;;;;;;12.40;99.90;;;;;;5094176;28;19967;-83
2022/04/12 07:09:47;;;;;;;;;;;12.30;99.90;;;;;;5094272;28;19966;-84
2022/04/12 07:12:14;;;;;;;;;;;12.40;99.90;;;;;;5095388;28;19977;-82
2022/04/12 07:14:41;;;;;;;;;;;12.40;99.90;;;;;;5102761;28;20496;-84
2022/04/12 07:17:08;;;;;;;;;;;12.40;99.90;;;;;;5077445;28;19947;-84
2022/04/12 07:19:34;;;;;;;;;;;12.40;99.90;;;;;;5082483;28;19932;-84
2022/04/12 07:22:01;;;;;;;;;;;12.50;99.90;;;;;;5070716;28;20451;-84
2022/04/12 07:24:29;;;;;;;;;;;12.50;99.90;;;;;;5077623;28;19985;-84
2022/04/12 07:26:56;;;;;;;;;;;12.20;99.90;;;;;;5078445;28;19963;-84
2022/04/12 07:29:23;;;;;;;;;;;12.50;99.90;;;;;;5082519;28;19954;-84
2022/04/12 07:31:50;;;;;;;;;;;12.50;99.90;;;;;;5078153;28;19975;-84
2022/04/12 07:34:16;;;;;;;;;;;12.50;99.90;;;;;;5026007;28;20089;-83
2022/04/12 07:36:47;;;;;;;;;;;12.50;99.90;;;;;;5069860;28;19971;-83
2022/04/12 07:39:14;;;;;;;;;;;12.50;99.90;;;;;;5078490;28;19946;-83
2022/04/12 07:41:42;;;;;;;;;;;12.50;99.90;;;;;;5078726;28;19938;-83
2022/04/12 07:44:09;;;;;;;;;;;12.50;99.90;;;;;;5078460;28;20287;-84
2022/04/12 07:46:36;;;;;;;;;;;12.50;99.90;;;;;;5022905;28;20695;-83
2022/04/12 07:49:03;;;;;;;;;;;12.00;99.90;;;;;;5040870;28;19928;-83
2022/04/12 07:51:29;;;;;;;;;;;12.50;99.90;;;;;;5057610;28;20197;-83
2022/04/12 07:53:56;;;;;;;;;;;12.70;99.90;;;;;;5004676;28;20023;-82
2022/04/12 07:56:23;;;;;;;;;;;12.40;99.90;;;;;;5002098;28;20047;-82
2022/04/12 07:58:51;;;;;;;;;;;12.20;99.90;;;;;;5026085;28;19932;-82
2022/04/12 08:01:18;;;;;;;;;;;13.30;99.90;;;;;;5047400;28;20407;-83
2022/04/12 08:03:45;;;;;;;;;;;13.90;99.90;;;;;;5046134;28;20442;-83
2022/04/12 08:06:12;;;;;;;;;;;12.60;99.90;;;;;;5061305;28;19924;-83
2022/04/12 08:08:39;;;;;;;;;;;12.60;99.90;;;;;;5039730;28;19932;-86
2022/04/12 08:11:07;;;;;;;;;;;12.50;99.90;;;;;;5082200;28;19973;-83
2022/04/12 08:13:34;;;;;;;;;;;12.70;99.90;;;;;;5070592;28;19924;-83
2022/04/12 08:16:03;;;;;;;;;;;12.30;99.90;;;;;;5081652;28;19924;-84
2022/04/12 08:18:29;;;;;;;;;;;12.50;99.90;;;;;;5073691;28;20416;-87
2022/04/12 08:20:56;;;;;;;;;;;12.20;99.90;;;;;;5077150;28;19938;-86
2022/04/12 08:23:24;;;;;;;;;;;12.10;99.90;;;;;;5073536;28;20602;-84
2022/04/12 08:25:50;;;;;;;;;;;12.30;99.90;;;;;;5069376;28;19947;-84
2022/04/12 08:28:17;;;;;;;;;;;12.20;99.90;;;;;;5081517;28;19932;-85
2022/04/12 08:30:45;;;;;;;;;;;12.00;99.90;;;;;;5059466;28;19932;-89
2022/04/12 08:33:13;;;;;;;;;;;13.40;99.90;;;;;;5071469;28;20375;-87
2022/04/12 08:35:40;;;;;;;;;;;12.60;99.90;;;;;;5072603;28;19932;-85
2022/04/12 08:38:07;;;;;;;;;;;12.10;99.90;;;;;;5081778;28;20686;-86
2022/04/12 08:40:34;;;;;;;;;;;12.00;99.90;;;;;;5079814;28;19986;-85
2022/04/12 08:43:02;;;;;;;;;;;11.90;99.90;;;;;;5072871;28;20038;-86
2022/04/12 08:45:29;;;;;;;;;;;11.90;99.90;;;;;;5081008;28;19936;-83
2022/04/12 08:47:56;;;;;;;;;;;11.80;99.90;;;;;;5079872;28;20007;-84
2022/04/12 08:50:24;;;;;;;;;;;11.80;99.90;;;;;;5083721;28;19978;-84
2022/04/12 08:52:51;;;;;;;;;;;12.30;99.90;;;;;;5080791;28;20057;-84
2022/04/12 08:55:19;;;;;;;;;;;11.90;99.90;;;;;;5083476;28;19924;-84
2022/04/12 08:57:46;;;;;;;;;;;11.90;99.90;;;;;;5082869;28;20859;-85
2022/04/12 09:00:13;;;;;;;;;;;11.80;99.90;;;;;;5071957;28;19928;-85
2022/04/12 09:02:40;;;;;;;;;;;11.80;99.90;;;;;;5075992;28;20390;-85
2022/04/12 09:05:08;;;;;;;;;;;11.70;99.90;;;;;;5080704;28;19958;-84
2022/04/12 09:07:44;;;;;;;;;;;11.80;99.90;;;;;;5074974;28;20031;-84
2022/04/12 09:10:11;;;;;;;;;;;11.50;99.90;;;;;;5071388;28;19932;-85
2022/04/12 09:12:38;;;;;;;;;;;11.60;99.90;;;;;;5076886;28;19989;-83
2022/04/12 09:15:11;;;;;;;;;;;11.70;99.90;;;;;;5074932;28;19928;-85
2022/04/12 09:17:44;;;;;;;;;;;11.70;99.90;;;;;;5080757;28;19928;-86
2022/04/12 09:20:12;;;;;;;;;;;11.70;99.90;;;;;;5081855;28;19924;-84
2022/04/12 09:22:40;;;;;;;;;;;11.70;99.90;;;;;;5074823;28;20279;-85
2022/04/12 09:25:10;;;;;;;;;;;10.00;99.90;;;;;;5080698;28;20748;-84
2022/04/12 09:27:37;;;;;;;;;;;11.70;99.90;;;;;;5074473;28;20431;-86
2022/04/12 09:30:05;;;;;;;;;;;11.70;99.90;;;;;;5080792;28;19928;-87
2022/04/12 09:32:35;;;;;;;;;;;11.70;99.90;;;;;;5083076;28;19929;-84
2022/04/12 09:35:02;;;;;;;;;;;11.70;99.90;;;;;;5085371;28;19993;-85
2022/04/12 09:37:30;;;;;;;;;;;11.80;99.90;;;;;;5087273;28;19924;-85
2022/04/12 09:40:08;;;;;;;;;;;11.80;99.90;;;;;;5077831;28;19932;-86
2022/04/12 09:42:53;;;;;;;;;;;11.80;99.90;;;;;;5075187;28;19931;-86
2022/04/12 09:45:23;;;;;;;;;;;11.90;99.90;;;;;;5075467;28;19932;-87
2022/04/12 09:47:52;;;;;;;;;;;12.00;99.90;;;;;;5080134;28;20334;-86
2022/04/12 09:50:20;;;;;;;;;;;12.00;99.90;;;;;;5083181;28;19933;-84
2022/04/12 09:52:53;;;;;;;;;;;12.00;99.90;;;;;;5066142;28;19924;-87
2022/04/12 09:55:34;;;;;;;;;;;12.00;99.90;;;;;;5076833;28;20030;-88
2022/04/12 09:58:04;;;;;;;;;;;11.00;99.90;;;;;;5074818;28;20015;-84
2022/04/12 10:00:31;;;;;;;;;;;12.50;99.90;;;;;;5084401;28;20171;-85
2022/04/12 10:02:58;;;;;;;;;;;12.10;99.90;;;;;;5082415;28;19924;-85
2022/04/12 10:05:26;;;;;;;;;;;12.20;99.90;;;;;;5082916;28;19932;-86
2022/04/12 10:07:57;;;;;;;;;;;12.70;99.90;;;;;;5074140;28;19939;-86
2022/04/12 10:10:24;;;;;;;;;;;12.30;99.90;;;;;;5084318;28;19944;-85
2022/04/12 10:12:53;;;;;;;;;;;12.20;99.90;;;;;;5079072;28;19943;-85
2022/04/12 10:15:20;;;;;;;;;;;12.20;99.90;;;;;;5070579;28;19933;-85
2022/04/12 10:17:47;;;;;;;;;;;12.20;99.90;;;;;;5081654;28;20325;-85
2022/04/12 10:20:15;;;;;;;;;;;12.10;99.90;;;;;;5072832;28;19978;-85
2022/04/12 10:22:42;;;;;;;;;;;12.10;99.90;;;;;;5072092;28;19940;-86
2022/04/12 10:25:10;;;;;;;;;;;12.20;99.90;;;;;;5082817;28;19928;-86
2022/04/12 10:27:37;;;;;;;;;;;13.60;99.90;;;;;;5076565;28;20285;-85
2022/04/12 10:30:19;;;;;;;;;;;11.90;99.90;;;;;;5081674;28;19990;-86
2022/04/12 10:32:59;;;;;;;;;;;11.90;99.90;;;;;;5077437;28;20305;-84
2022/04/12 10:35:26;;;;;;;;;;;12.00;99.90;;;;;;5073878;28;19928;-86
2022/04/12 10:37:56;;;;;;;;;;;12.00;99.90;;;;;;5086260;28;20396;-85
2022/04/12 10:40:24;;;;;;;;;;;12.10;99.90;;;;;;5077692;28;20382;-85
2022/04/12 10:42:51;;;;;;;;;;;12.00;99.90;;;;;;5082903;28;19924;-85
2022/04/12 10:45:28;;;;;;;;;;;12.10;99.90;;;;;;5076228;28;19931;-86
2022/04/12 10:47:59;;;;;;;;;;;12.20;99.90;;;;;;5077396;28;19928;-90
2022/04/12 10:50:28;;;;;;;;;;;12.30;99.90;;;;;;5085008;28;20352;-85
2022/04/12 10:52:55;;;;;;;;;;;12.50;99.90;;;;;;5063637;28;20624;-87
2022/04/12 10:55:23;;;;;;;;;;;12.00;99.90;;;;;;5073890;28;20066;-84
2022/04/12 10:57:51;;;;;;;;;;;12.10;99.90;;;;;;5082936;28;19963;-84
2022/04/12 11:00:31;;;;;;;;;;;12.00;99.90;;;;;;5085038;28;19932;-85
2022/04/12 11:02:58;;;;;;;;;;;12.00;99.90;;;;;;5078671;28;19931;-84
2022/04/12 11:05:42;;;;;;;;;;;11.90;99.90;;;;;;5085634;28;19928;-85
2022/04/12 11:08:30;;;;;;;;;;;11.80;99.90;;;;;;5061316;28;20022;-85
2022/04/12 11:11:09;;;;;;;;;;;11.90;99.90;;;;;;5078238;28;19932;-86
2022/04/12 11:13:37;;;;;;;;;;;11.80;99.90;;;;;;5074165;28;19936;-84
2022/04/12 11:16:08;;;;;;;;;;;11.90;99.90;;;;;;5069926;28;19938;-84
2022/04/12 11:18:48;;;;;;;;;;;11.20;99.90;;;;;;5080336;28;20349;-85
2022/04/12 11:21:15;;;;;;;;;;;11.70;99.90;;;;;;5080892;28;19954;-84
2022/04/12 11:23:49;;;;;;;;;;;11.80;99.90;;;;;;5092569;28;19924;-85
2022/04/12 11:26:29;;;;;;;;;;;11.80;99.90;;;;;;5083117;28;19928;-84
2022/04/12 11:28:56;;;;;;;;;;;11.80;99.90;;;;;;5082820;28;20460;-83
2022/04/12 11:31:23;;;;;;;;;;;12.50;99.90;;;;;;5088989;28;20023;-85
2022/04/12 11:33:50;;;;;;;;;;;11.80;99.90;;;;;;5083952;28;19924;-84
2022/04/12 11:36:18;;;;;;;;;;;11.80;99.90;;;;;;5082612;28;19944;-84
2022/04/12 11:38:47;;;;;;;;;;;11.80;99.90;;;;;;5079988;28;19927;-84
2022/04/12 11:41:15;;;;;;;;;;;10.90;99.90;;;;;;5084065;28;19924;-86
2022/04/12 11:43:50;;;;;;;;;;;11.60;99.90;;;;;;5060412;28;20421;-85
2022/04/12 11:46:18;;;;;;;;;;;11.60;99.90;;;;;;5073863;28;19953;-86
2022/04/12 11:48:45;;;;;;;;;;;11.90;99.90;;;;;;5078563;28;19924;-86
2022/04/12 11:51:13;;;;;;;;;;;11.70;99.90;;;;;;5066717;28;19943;-86
2022/04/12 11:53:46;;;;;;;;;;;12.10;99.90;;;;;;5078579;28;20045;-87
2022/04/12 11:56:14;;;;;;;;;;;12.10;99.90;;;;;;5079067;28;19951;-86
2022/04/12 11:58:41;;;;;;;;;;;12.10;99.90;;;;;;5080956;28;19924;-86
2022/04/12 12:01:11;;;;;;;;;;;13.00;99.90;;;;;;5081555;28;19928;-86
2022/04/12 12:03:38;;;;;;;;;;;12.00;99.90;;;;;;5081683;28;20012;-85
2022/04/12 12:06:08;;;;;;;;;;;12.10;99.90;;;;;;5081414;28;19935;-85
2022/04/12 12:08:34;;;;;;;;;;;12.10;99.90;;;;;;5074009;28;20398;-85
2022/04/12 12:11:10;;;;;;;;;;;12.30;99.90;;;;;;5074555;28;19932;-85
2022/04/12 12:13:39;;;;;;;;;;;12.40;99.90;;;;;;5078664;28;19924;-84
2022/04/12 12:16:16;;;;;;;;;;;12.50;99.90;;;;;;5080143;28;20381;-86
2022/04/12 12:18:43;;;;;;;;;;;12.30;99.90;;;;;;5075158;28;20015;-86
2022/04/12 12:21:10;;;;;;;;;;;12.50;99.90;;;;;;5084677;28;20681;-86
2022/04/12 12:23:37;;;;;;;;;;;12.90;99.90;;;;;;5075039;28;19930;-86
2022/04/12 12:26:03;;;;;;;;;;;12.80;99.90;;;;;;5094245;28;19928;-85
2022/04/12 12:28:31;;;;;;;;;;;13.00;99.90;;;;;;5077388;28;19924;-86
2022/04/12 12:30:59;;;;;;;;;;;13.30;99.90;;;;;;5081554;28;19969;-87
2022/04/12 12:33:36;;;;;;;;;;;13.60;99.90;;;;;;5083116;28;20474;-85
2022/04/12 12:36:03;;;;;;;;;;;14.10;99.90;;;;;;5077791;28;19996;-86
2022/04/12 12:38:29;;;;;;;;;;;14.60;99.90;;;;;;5078220;28;20297;-86
2022/04/12 12:40:57;;;;;;;;;;;14.10;99.90;;;;;;5086976;28;20267;-86
2022/04/12 12:43:26;;;;;;;;;;;14.30;99.90;;;;;;5084817;28;19959;-86
2022/04/12 12:45:52;;;;;;;;;;;14.40;99.90;;;;;;5078316;28;20017;-86
2022/04/12 12:48:23;;;;;;;;;;;14.40;99.90;;;;;;5084956;28;19935;-87
2022/04/12 12:50:51;;;;;;;;;;;14.50;99.90;;;;;;5088204;28;20208;-86
2022/04/12 12:53:24;;;;;;;;;;;14.30;99.90;;;;;;5085316;28;19924;-86
2022/04/12 12:55:50;;;;;;;;;;;14.80;99.90;;;;;;5084071;28;20871;-86
2022/04/12 12:58:18;;;;;;;;;;;14.80;99.90;;;;;;5085903;28;20334;-87
2022/04/12 13:00:45;;;;;;;;;;;15.00;99.90;;;;;;5096016;28;19932;-88
2022/04/12 13:03:13;;;;;;;;;;;15.00;99.90;;;;;;5095584;28;19932;-89
2022/04/12 13:05:42;;;;;;;;;;;15.20;99.90;;;;;;5086726;28;20341;-88
2022/04/12 13:08:12;;;;;;;;;;;15.50;99.90;;;;;;5082954;28;19932;-87
2022/04/12 13:10:40;;;;;;;;;;;15.20;99.90;;;;;;5078653;28;20816;-88
2022/04/12 13:13:07;;;;;;;;;;;14.90;99.90;;;;;;5080413;28;19936;-88
2022/04/12 13:15:34;;;;;;;;;;;15.40;99.90;;;;;;5086330;28;19925;-87
2022/04/12 13:18:01;;;;;;;;;;;15.40;99.90;;;;;;5086040;28;19924;-86
2022/04/12 13:20:27;;;;;;;;;;;15.60;99.90;;;;;;5084727;28;20297;-86
2022/04/12 13:22:56;;;;;;;;;;;15.20;99.90;;;;;;5092290;28;20434;-86
2022/04/12 13:25:25;;;;;;;;;;;15.20;99.90;;;;;;5079706;28;19952;-88
2022/04/12 13:27:52;;;;;;;;;;;15.50;99.90;;;;;;5080968;28;19925;-87
2022/04/12 13:30:20;;;;;;;;;;;15.90;99.90;;;;;;5084868;28;19928;-90
2022/04/12 13:32:47;;;;;;;;;;;15.40;99.90;;;;;;5084029;28;19947;-86
2022/04/12 13:35:17;;;;;;;;;;;16.00;99.90;;;;;;5078564;28;20445;-85
2022/04/12 13:37:44;;;;;;;;;;;15.30;99.90;;;;;;5080157;28;19928;-85
2022/04/12 13:40:11;;;;;;;;;;;15.40;99.90;;;;;;5084301;28;19934;-86
2022/04/12 13:42:45;;;;;;;;;;;14.60;99.90;;;;;;5090290;28;19924;-86
2022/04/12 13:45:12;;;;;;;;;;;15.20;99.90;;;;;;5079281;28;19988;-85
2022/04/12 13:47:39;;;;;;;;;;;15.30;99.90;;;;;;5082202;28;19924;-86
2022/04/12 13:50:06;;;;;;;;;;;15.60;99.90;;;;;;5078869;28;19969;-85
2022/04/12 13:52:38;;;;;;;;;;;15.60;99.90;;;;;;5081932;28;19932;-84
2022/04/12 13:55:06;;;;;;;;;;;15.80;99.90;;;;;;5083419;28;19932;-84
2022/04/12 13:57:34;;;;;;;;;;;15.70;99.90;;;;;;5075312;28;19943;-87
2022/04/12 14:00:05;;;;;;;;;;;15.70;99.90;;;;;;5079856;28;20035;-87
2022/04/12 14:02:32;;;;;;;;;;;15.80;99.90;;;;;;5080531;28;19935;-86
2022/04/12 14:04:58;;;;;;;;;;;15.40;99.90;;;;;;5079744;28;20026;-87
2022/04/12 14:07:25;;;;;;;;;;;15.50;99.90;;;;;;5085159;28;19932;-85
2022/04/12 14:09:52;;;;;;;;;;;15.50;99.90;;;;;;5084632;28;19988;-86
2022/04/12 14:12:19;;;;;;;;;;;15.40;99.90;;;;;;5078470;28;20012;-88
2022/04/12 14:14:45;;;;;;;;;;;15.40;99.90;;;;;;5076592;28;19925;-84
2022/04/12 14:17:14;;;;;;;;;;;15.70;99.90;;;;;;5081455;28;19932;-86
2022/04/12 14:19:42;;;;;;;;;;;14.30;99.90;;;;;;5083036;28;20068;-85
2022/04/12 14:22:09;;;;;;;;;;;15.80;99.90;;;;;;5082471;28;19929;-86